sensor_id;sensor_type;location;lat;lon;timestamp;pressure;altitude;pressure_sealevel;temperature;humidity
75891;BME280;64571;47.512;19.054;2022-12-04T00:02:43;101230.94;;;5.26;82.21
75891;BME280;64571;47.512;19.054;2022-12-04T00:05:45;101237.53;;;5.25;82.21
75891;BME280;64571;47.512;19.054;2022-12-04T00:08:48;101213.94;;;5.17;82.14
75891;BME280;64571;47.512;19.054;2022-12-04T00:11:51;101224.97;;;5.29;82.17
75891;BME280;64571;47.512;19.054;2022-12-04T00:14:53;101215.41;;;5.20;82.10
75891;BME280;64571;47.512;19.054;2022-12-04T00:18:16;101230.37;;;5.24;82.48
75891;BME280;64571;47.512;19.054;2022-12-04T00:21:19;101231.19;;;5.24;82.51
75891;BME280;64571;47.512;19.054;2022-12-04T00:24:22;101216.59;;;5.12;82.55
75891;BME280;64571;47.512;19.054;2022-12-04T00:27:24;101216.00;;;5.10;82.82
75891;BME280;64571;47.512;19.054;2022-12-04T00:30:27;101217.56;;;5.06;82.55
75891;BME280;64571;47.512;19.054;2022-12-04T00:33:29;101218.66;;;5.05;82.76
75891;BME280;64571;47.512;19.054;2022-12-04T00:36:32;101242.84;;;5.15;82.77
75891;BME280;64571;47.512;19.054;2022-12-04T00:39:34;101237.81;;;5.12;82.83
75891;BME280;64571;47.512;19.054;2022-12-04T00:42:37;101248.56;;;5.13;82.64
75891;BME280;64571;47.512;19.054;2022-12-04T00:45:39;101243.66;;;5.03;82.75
75891;BME280;64571;47.512;19.054;2022-12-04T00:48:42;101215.53;;;4.90;82.88
75891;BME280;64571;47.512;19.054;2022-12-04T00:51:44;101225.09;;;4.99;83.00
75891;BME280;64571;47.512;19.054;2022-12-04T00:54:46;101234.47;;;4.98;83.11
75891;BME280;64571;47.512;19.054;2022-12-04T00:57:49;101229.66;;;4.93;83.27
75891;BME280;64571;47.512;19.054;2022-12-04T01:01:01;101211.59;;;4.86;83.20
75891;BME280;64571;47.512;19.054;2022-12-04T01:04:05;101211.59;;;4.86;83.15
75891;BME280;64571;47.512;19.054;2022-12-04T01:07:07;101237.69;;;4.95;83.38
75891;BME280;64571;47.512;19.054;2022-12-04T01:10:10;101234.47;;;4.98;83.25
75891;BME280;64571;47.512;19.054;2022-12-04T01:13:13;101230.25;;;4.95;83.36
75891;BME280;64571;47.512;19.054;2022-12-04T01:16:27;101212.09;;;4.82;83.43
75891;BME280;64571;47.512;19.054;2022-12-04T01:19:30;101211.25;;;4.82;83.47
75891;BME280;64571;47.512;19.054;2022-12-04T01:22:32;101230.88;;;4.97;83.34
75891;BME280;64571;47.512;19.054;2022-12-04T01:25:35;101228.12;;;4.97;83.39
75891;BME280;64571;47.512;19.054;2022-12-04T01:28:38;101229.91;;;5.03;83.30
75891;BME280;64571;47.512;19.054;2022-12-04T01:31:40;101207.88;;;4.92;83.23
75891;BME280;64571;47.512;19.054;2022-12-04T01:34:43;101235.03;;;5.12;83.04
75891;BME280;64571;47.512;19.054;2022-12-04T01:37:45;101216.25;;;4.97;83.11
75891;BME280;64571;47.512;19.054;2022-12-04T01:40:48;101234.34;;;5.04;83.28
75891;BME280;64571;47.512;19.054;2022-12-04T01:47:12;101230.88;;;5.09;83.20
75891;BME280;64571;47.512;19.054;2022-12-04T01:50:14;101237.44;;;5.08;83.23
75891;BME280;64571;47.512;19.054;2022-12-04T01:53:18;101235.03;;;5.12;83.12
75891;BME280;64571;47.512;19.054;2022-12-04T01:56:23;101215.28;;;5.03;82.98
75891;BME280;64571;47.512;19.054;2022-12-04T01:59:30;101240.56;;;5.12;83.04
75891;BME280;64571;47.512;19.054;2022-12-04T02:02:38;101231.72;;;5.10;83.17
75891;BME280;64571;47.512;19.054;2022-12-04T02:05:41;101230.37;;;5.12;83.19
75891;BME280;64571;47.512;19.054;2022-12-04T02:08:43;101213.84;;;5.12;83.18
75891;BME280;64571;47.512;19.054;2022-12-04T02:13:02;101221.41;;;5.05;83.44
75891;BME280;64571;47.512;19.054;2022-12-04T02:15:50;101219.59;;;4.99;83.58
75891;BME280;64571;47.512;19.054;2022-12-04T02:26:32;101216.63;;;4.77;84.55
75891;BME280;64571;47.512;19.054;2022-12-04T02:29:58;101219.87;;;4.74;84.77
75891;BME280;64571;47.512;19.054;2022-12-04T02:33:21;101222.84;;;4.72;84.80
75891;BME280;64571;47.512;19.054;2022-12-04T02:36:28;101198.28;;;4.59;84.81
75891;BME280;64571;47.512;19.054;2022-12-04T02:39:36;101195.41;;;4.54;85.08
75891;BME280;64571;47.512;19.054;2022-12-04T02:42:43;101209.19;;;4.66;85.10
75891;BME280;64571;47.512;19.054;2022-12-04T02:45:52;101197.69;;;4.45;85.40
75891;BME280;64571;47.512;19.054;2022-12-04T02:48:59;101217.22;;;4.55;85.47
75891;BME280;64571;47.512;19.054;2022-12-04T02:52:07;101219.59;;;4.52;85.50
75891;BME280;64571;47.512;19.054;2022-12-04T02:55:16;101223.91;;;4.48;85.53
75891;BME280;64571;47.512;19.054;2022-12-04T02:58:28;101209.91;;;4.38;85.63
75891;BME280;64571;47.512;19.054;2022-12-04T03:01:35;101211.34;;;4.52;85.59
75891;BME280;64571;47.512;19.054;2022-12-04T03:04:41;101189.69;;;4.44;85.51
75891;BME280;64571;47.512;19.054;2022-12-04T03:07:53;101200.22;;;4.47;85.46
75891;BME280;64571;47.512;19.054;2022-12-04T03:10:59;101206.56;;;4.47;85.53
75891;BME280;64571;47.512;19.054;2022-12-04T03:14:32;101198.19;;;4.42;85.49
75891;BME280;64571;47.512;19.054;2022-12-04T03:17:42;101210.59;;;4.45;85.65
75891;BME280;64571;47.512;19.054;2022-12-04T03:20:51;101203.78;;;4.36;86.15
75891;BME280;64571;47.512;19.054;2022-12-04T03:24:03;101184.97;;;4.21;86.32
75891;BME280;64571;47.512;19.054;2022-12-04T03:27:29;101216.31;;;4.31;86.41
75891;BME280;64571;47.512;19.054;2022-12-04T03:30:43;101214.66;;;4.30;86.59
75891;BME280;64571;47.512;19.054;2022-12-04T03:33:55;101196.34;;;4.24;86.37
75891;BME280;64571;47.512;19.054;2022-12-04T03:37:04;101195.16;;;4.20;86.39
75891;BME280;64571;47.512;19.054;2022-12-04T03:40:26;101204.03;;;4.34;86.23
75891;BME280;64571;47.512;19.054;2022-12-04T03:46:55;101196.13;;;4.38;85.85
75891;BME280;64571;47.512;19.054;2022-12-04T03:50:06;101203.31;;;4.39;85.71
75891;BME280;64571;47.512;19.054;2022-12-04T03:53:34;101210.72;;;4.38;85.65
75891;BME280;64571;47.512;19.054;2022-12-04T03:56:42;101217.16;;;4.32;85.79
75891;BME280;64571;47.512;19.054;2022-12-04T04:03:02;101189.97;;;4.12;85.87
75891;BME280;64571;47.512;19.054;2022-12-04T04:06:13;101218.59;;;4.23;86.00
75891;BME280;64571;47.512;19.054;2022-12-04T04:09:20;101195.94;;;4.09;85.88
75891;BME280;64571;47.512;19.054;2022-12-04T04:12:26;101216.31;;;4.20;85.77
75891;BME280;64571;47.512;19.054;2022-12-04T04:15:30;101211.66;;;4.20;85.65
75891;BME280;64571;47.512;19.054;2022-12-04T04:18:52;101181.59;;;4.07;85.60
75891;BME280;64571;47.512;19.054;2022-12-04T04:22:15;101190.94;;;4.06;85.61
75891;BME280;64571;47.512;19.054;2022-12-04T04:25:40;101213.78;;;4.18;85.65
75891;BME280;64571;47.512;19.054;2022-12-04T04:28:44;101214.16;;;4.22;85.65
75891;BME280;64571;47.512;19.054;2022-12-04T04:35:26;101214.66;;;4.19;85.79
75891;BME280;64571;47.512;19.054;2022-12-04T04:38:38;101226.94;;;4.16;85.98
75891;BME280;64571;47.512;19.054;2022-12-04T04:41:52;101203.37;;;4.09;85.76
75891;BME280;64571;47.512;19.054;2022-12-04T04:48:21;101222.06;;;4.30;85.50
75891;BME280;64571;47.512;19.054;2022-12-04T04:51:26;101200.66;;;4.20;85.27
75891;BME280;64571;47.512;19.054;2022-12-04T04:54:30;101217.53;;;4.36;85.14
75891;BME280;64571;47.512;19.054;2022-12-04T04:57:36;101208.19;;;4.37;85.17
75891;BME280;64571;47.512;19.054;2022-12-04T05:00:39;101223.78;;;4.43;85.07
75891;BME280;64571;47.512;19.054;2022-12-04T05:03:43;101218.03;;;4.44;85.05
75891;BME280;64571;47.512;19.054;2022-12-04T05:06:45;101217.19;;;4.44;84.91
75891;BME280;64571;47.512;19.054;2022-12-04T05:09:50;101226.06;;;4.46;84.66
75891;BME280;64571;47.512;19.054;2022-12-04T05:12:52;101219.69;;;4.45;84.55
75891;BME280;64571;47.512;19.054;2022-12-04T05:16:02;101216.25;;;4.50;84.39
75891;BME280;64571;47.512;19.054;2022-12-04T05:19:05;101194.44;;;4.37;84.34
75891;BME280;64571;47.512;19.054;2022-12-04T05:22:29;101210.37;;;4.46;84.20
75891;BME280;64571;47.512;19.054;2022-12-04T05:25:32;101209.19;;;4.42;84.17
75891;BME280;64571;47.512;19.054;2022-12-04T05:28:35;101218.03;;;4.44;84.12
75891;BME280;64571;47.512;19.054;2022-12-04T05:31:38;101217.91;;;4.39;84.19
75891;BME280;64571;47.512;19.054;2022-12-04T05:34:40;101199.31;;;4.23;84.14
75891;BME280;64571;47.512;19.054;2022-12-04T05:37:43;101195.28;;;4.25;84.09
75891;BME280;64571;47.512;19.054;2022-12-04T05:40:46;101220.28;;;4.36;84.05
75891;BME280;64571;47.512;19.054;2022-12-04T05:43:49;101192.53;;;4.25;83.97
75891;BME280;64571;47.512;19.054;2022-12-04T05:46:51;101209.28;;;4.36;84.07
75891;BME280;64571;47.512;19.054;2022-12-04T05:49:53;101207.97;;;4.38;83.97
75891;BME280;64571;47.512;19.054;2022-12-04T05:52:56;101216.94;;;4.34;84.19
75891;BME280;64571;47.512;19.054;2022-12-04T05:56:01;101213.56;;;4.31;84.38
75891;BME280;64571;47.512;19.054;2022-12-04T05:59:04;101194.06;;;4.21;84.44
75891;BME280;64571;47.512;19.054;2022-12-04T06:02:06;101194.06;;;4.21;84.57
75891;BME280;64571;47.512;19.054;2022-12-04T06:05:08;101217.41;;;4.30;84.79
75891;BME280;64571;47.512;19.054;2022-12-04T06:08:11;101216.69;;;4.23;85.48
75891;BME280;64571;47.512;19.054;2022-12-04T06:11:16;101212.50;;;4.21;85.86
75891;BME280;64571;47.512;19.054;2022-12-04T06:14:18;101215.12;;;4.16;86.26
75891;BME280;64571;47.512;19.054;2022-12-04T06:17:21;101197.34;;;4.00;86.59
75891;BME280;64571;47.512;19.054;2022-12-04T06:20:23;101197.34;;;4.00;86.64
75891;BME280;64571;47.512;19.054;2022-12-04T06:23:26;101209.19;;;4.00;86.80
75891;BME280;64571;47.512;19.054;2022-12-04T06:26:29;101227.03;;;4.10;86.74
75891;BME280;64571;47.512;19.054;2022-12-04T06:29:32;101227.53;;;4.06;86.76
75891;BME280;64571;47.512;19.054;2022-12-04T06:32:34;101212.66;;;3.96;86.82
75891;BME280;64571;47.512;19.054;2022-12-04T06:35:36;101227.75;;;4.05;86.90
75891;BME280;64571;47.512;19.054;2022-12-04T06:38:39;101207.00;;;3.91;86.92
75891;BME280;64571;47.512;19.054;2022-12-04T06:41:42;101230.97;;;4.02;86.99
75891;BME280;64571;47.512;19.054;2022-12-04T06:44:44;101241.16;;;4.01;87.06
75891;BME280;64571;47.512;19.054;2022-12-04T06:47:47;101233.94;;;4.00;87.19
75891;BME280;64571;47.512;19.054;2022-12-04T06:50:58;101235.28;;;3.98;87.34
75891;BME280;64571;47.512;19.054;2022-12-04T06:54:01;101225.47;;;4.02;87.18
75891;BME280;64571;47.512;19.054;2022-12-04T06:57:04;101209.91;;;3.96;87.08
75891;BME280;64571;47.512;19.054;2022-12-04T07:00:07;101195.09;;;3.97;87.13
75891;BME280;64571;47.512;19.054;2022-12-04T07:03:09;101214.22;;;4.03;87.23
75891;BME280;64571;47.512;19.054;2022-12-04T07:06:32;101200.09;;;4.00;87.34
75891;BME280;64571;47.512;19.054;2022-12-04T07:09:35;101215.06;;;4.04;87.31
75891;BME280;64571;47.512;19.054;2022-12-04T07:12:38;101209.16;;;3.89;87.66
75891;BME280;64571;47.512;19.054;2022-12-04T07:15:40;101222.84;;;4.07;87.58
75891;BME280;64571;47.512;19.054;2022-12-04T07:18:43;101215.88;;;3.93;87.58
75891;BME280;64571;47.512;19.054;2022-12-04T07:21:45;101212.75;;;3.89;87.63
75891;BME280;64571;47.512;19.054;2022-12-04T07:24:48;101210.25;;;3.88;87.72
75891;BME280;64571;47.512;19.054;2022-12-04T07:27:50;101242.56;;;4.04;87.65
75891;BME280;64571;47.512;19.054;2022-12-04T07:30:53;101230.88;;;4.09;87.44
75891;BME280;64571;47.512;19.054;2022-12-04T07:33:56;101232.53;;;4.10;87.50
75891;BME280;64571;47.512;19.054;2022-12-04T07:36:59;101231.38;;;4.17;87.23
75891;BME280;64571;47.512;19.054;2022-12-04T07:40:02;101233.41;;;4.22;87.11
75891;BME280;64571;47.512;19.054;2022-12-04T07:43:05;101236.09;;;4.28;86.78
75891;BME280;64571;47.512;19.054;2022-12-04T07:46:13;101213.69;;;4.25;86.55
75891;BME280;64571;47.512;19.054;2022-12-04T07:49:16;101232.12;;;4.36;86.42
75891;BME280;64571;47.512;19.054;2022-12-04T07:52:19;101234.41;;;4.39;86.36
75891;BME280;64571;47.512;19.054;2022-12-04T07:55:21;101229.50;;;4.41;86.06
75891;BME280;64571;47.512;19.054;2022-12-04T07:58:24;101211.19;;;4.35;85.77
75891;BME280;64571;47.512;19.054;2022-12-04T08:01:27;101230.63;;;4.52;85.77
75891;BME280;64571;47.512;19.054;2022-12-04T08:04:30;101215.31;;;4.56;85.41
75891;BME280;64571;47.512;19.054;2022-12-04T08:07:32;101230.97;;;4.67;85.28
75891;BME280;64571;47.512;19.054;2022-12-04T08:10:35;101222.38;;;4.75;85.24
75891;BME280;64571;47.512;19.054;2022-12-04T08:13:40;101226.31;;;4.79;84.89
75891;BME280;64571;47.512;19.054;2022-12-04T08:16:43;101204.66;;;4.60;85.13
75891;BME280;64571;47.512;19.054;2022-12-04T08:19:52;101233.84;;;4.72;84.97
75891;BME280;64571;47.512;19.054;2022-12-04T08:22:54;101238.78;;;4.82;85.08
75891;BME280;64571;47.512;19.054;2022-12-04T08:25:58;101234.94;;;4.83;85.04
75891;BME280;64571;47.512;19.054;2022-12-04T08:29:02;101213.28;;;4.75;85.40
75891;BME280;64571;47.512;19.054;2022-12-04T08:32:05;101224.88;;;4.89;85.20
75891;BME280;64571;47.512;19.054;2022-12-04T08:35:07;101219.38;;;4.89;85.46
75891;BME280;64571;47.512;19.054;2022-12-04T08:38:10;101199.87;;;4.78;85.48
75891;BME280;64571;47.512;19.054;2022-12-04T08:41:14;101229.56;;;5.00;85.14
75891;BME280;64571;47.512;19.054;2022-12-04T08:44:17;101208.81;;;4.86;85.19
75891;BME280;64571;47.512;19.054;2022-12-04T08:47:19;101223.44;;;4.98;84.92
75891;BME280;64571;47.512;19.054;2022-12-04T08:50:22;101224.13;;;5.17;84.54
75891;BME280;64571;47.512;19.054;2022-12-04T08:53:24;101230.97;;;5.14;84.61
75891;BME280;64571;47.512;19.054;2022-12-04T08:56:27;101234.94;;;5.18;84.28
75891;BME280;64571;47.512;19.054;2022-12-04T08:59:31;101231.78;;;5.26;84.07
75891;BME280;64571;47.512;19.054;2022-12-04T09:02:33;101217.31;;;5.19;83.94
75891;BME280;64571;47.512;19.054;2022-12-04T09:05:36;101216.44;;;5.30;83.75
75891;BME280;64571;47.512;19.054;2022-12-04T09:08:38;101221.84;;;5.37;83.49
75891;BME280;64571;47.512;19.054;2022-12-04T09:11:44;101233.03;;;5.59;82.75
75891;BME280;64571;47.512;19.054;2022-12-04T09:14:46;101214.81;;;5.58;82.55
75891;BME280;64571;47.512;19.054;2022-12-04T09:17:49;101216.59;;;5.64;82.03
75891;BME280;64571;47.512;19.054;2022-12-04T09:20:56;101216.00;;;5.62;81.88
75891;BME280;64571;47.512;19.054;2022-12-04T09:23:58;101196.94;;;5.61;81.78
75891;BME280;64571;47.512;19.054;2022-12-04T09:27:01;101215.12;;;5.73;81.77
75891;BME280;64571;47.512;19.054;2022-12-04T09:30:05;101207.44;;;5.75;81.61
75891;BME280;64571;47.512;19.054;2022-12-04T09:33:07;101209.13;;;5.76;81.52
75891;BME280;64571;47.512;19.054;2022-12-04T09:36:10;101204.28;;;5.83;81.42
75891;BME280;64571;47.512;19.054;2022-12-04T09:39:18;101189.22;;;5.74;81.15
75891;BME280;64571;47.512;19.054;2022-12-04T09:45:24;101193.72;;;5.80;81.25
75891;BME280;64571;47.512;19.054;2022-12-04T09:48:33;101189.03;;;5.93;80.98
75891;BME280;64571;47.512;19.054;2022-12-04T09:51:37;101163.50;;;5.86;80.84
75891;BME280;64571;47.512;19.054;2022-12-04T09:54:42;101163.66;;;5.79;80.70
75891;BME280;64571;47.512;19.054;2022-12-04T09:57:48;101166.91;;;5.76;80.99
75891;BME280;64571;47.512;19.054;2022-12-04T10:00:52;101159.66;;;5.87;80.28
75891;BME280;64571;47.512;19.054;2022-12-04T10:03:56;101168.72;;;5.99;80.24
75891;BME280;64571;47.512;19.054;2022-12-04T10:07:13;101128.97;;;5.83;79.84
75891;BME280;64571;47.512;19.054;2022-12-04T10:10:37;101147.19;;;6.13;79.36
75891;BME280;64571;47.512;19.054;2022-12-04T10:13:53;101156.91;;;6.32;78.89
75891;BME280;64571;47.512;19.054;2022-12-04T10:23:46;101138.22;;;6.56;77.64
75891;BME280;64571;47.512;19.054;2022-12-04T10:26:53;101139.84;;;6.74;77.53
75891;BME280;64571;47.512;19.054;2022-12-04T10:30:02;101119.34;;;6.70;76.91
75891;BME280;64571;47.512;19.054;2022-12-04T10:36:23;101113.28;;;6.90;76.16
75891;BME280;64571;47.512;19.054;2022-12-04T10:39:56;101119.72;;;7.17;75.89
75891;BME280;64571;47.512;19.054;2022-12-04T10:43:05;101121.81;;;7.10;75.59
75891;BME280;64571;47.512;19.054;2022-12-04T10:46:15;101101.59;;;7.04;75.58
75891;BME280;64571;47.512;19.054;2022-12-04T10:49:23;101098.94;;;6.93;75.53
75891;BME280;64571;47.512;19.054;2022-12-04T10:52:27;101104.28;;;7.21;75.14
75891;BME280;64571;47.512;19.054;2022-12-04T10:55:33;101099.91;;;7.25;74.80
75891;BME280;64571;47.512;19.054;2022-12-04T10:58:36;101078.81;;;7.19;74.73
75891;BME280;64571;47.512;19.054;2022-12-04T11:01:39;101073.28;;;7.19;74.35
75891;BME280;64571;47.512;19.054;2022-12-04T11:04:42;101072.56;;;7.29;74.12
75891;BME280;64571;47.512;19.054;2022-12-04T11:07:46;101084.91;;;7.43;74.14
75891;BME280;64571;47.512;19.054;2022-12-04T11:10:58;101061.09;;;7.42;73.79
75891;BME280;64571;47.512;19.054;2022-12-04T11:14:21;101057.50;;;7.42;73.34
75891;BME280;64571;47.512;19.054;2022-12-04T11:17:24;101062.12;;;7.63;73.17
75891;BME280;64571;47.512;19.054;2022-12-04T11:20:27;101064.44;;;7.71;72.98
75891;BME280;64571;47.512;19.054;2022-12-04T11:23:50;101052.25;;;7.72;72.69
75891;BME280;64571;47.512;19.054;2022-12-04T11:26:53;101047.88;;;7.76;72.53
75891;BME280;64571;47.512;19.054;2022-12-04T11:30:03;101054.88;;;7.84;72.54
75891;BME280;64571;47.512;19.054;2022-12-04T11:33:19;101047.72;;;7.88;72.28
75891;BME280;64571;47.512;19.054;2022-12-04T11:36:32;101032.22;;;7.92;72.27
75891;BME280;64571;47.512;19.054;2022-12-04T11:39:39;101043.72;;;8.11;71.54
75891;BME280;64571;47.512;19.054;2022-12-04T11:42:42;101049.22;;;8.06;70.62
75891;BME280;64571;47.512;19.054;2022-12-04T11:45:59;101052.03;;;8.11;70.76
75891;BME280;64571;47.512;19.054;2022-12-04T11:49:02;101039.38;;;8.20;70.75
75891;BME280;64571;47.512;19.054;2022-12-04T11:55:25;101021.94;;;8.20;70.06
75891;BME280;64571;47.512;19.054;2022-12-04T11:58:56;101005.16;;;7.99;70.21
75891;BME280;64571;47.512;19.054;2022-12-04T12:02:33;101026.34;;;8.21;70.17
75891;BME280;64571;47.512;19.054;2022-12-04T12:22:46;101024.16;;;8.28;69.14
75891;BME280;64571;47.512;19.054;2022-12-04T12:26:11;101015.63;;;8.34;69.50
75891;BME280;64571;47.512;19.054;2022-12-04T12:36:07;101023.13;;;8.34;69.67
75891;BME280;64571;47.512;19.054;2022-12-04T12:39:19;101021.97;;;8.30;69.78
75891;BME280;64571;47.512;19.054;2022-12-04T12:42:30;101020.03;;;8.30;69.92
75891;BME280;64571;47.512;19.054;2022-12-04T12:45:44;101009.50;;;8.27;69.93
75891;BME280;64571;47.512;19.054;2022-12-04T12:52:23;101014.03;;;8.39;70.04
75891;BME280;64571;47.512;19.054;2022-12-04T12:55:40;101012.94;;;8.40;69.99
75891;BME280;64571;47.512;19.054;2022-12-04T12:58:48;101014.62;;;8.46;70.04
75891;BME280;64571;47.512;19.054;2022-12-04T13:01:59;100984.94;;;8.41;69.76
75891;BME280;64571;47.512;19.054;2022-12-04T13:05:06;101004.66;;;8.50;69.78
75891;BME280;64571;47.512;19.054;2022-12-04T13:08:25;100996.63;;;8.48;69.74
75891;BME280;64571;47.512;19.054;2022-12-04T13:11:29;100997.50;;;8.54;69.55
75891;BME280;64571;47.512;19.054;2022-12-04T13:14:33;100983.59;;;8.44;69.67
75891;BME280;64571;47.512;19.054;2022-12-04T13:17:37;100988.59;;;8.47;69.61
75891;BME280;64571;47.512;19.054;2022-12-04T13:20:46;100972.81;;;8.47;69.49
75891;BME280;64571;47.512;19.054;2022-12-04T13:31:02;101007.19;;;8.51;69.58
75891;BME280;64571;47.512;19.054;2022-12-04T13:34:20;100999.34;;;8.38;69.95
75891;BME280;64571;47.512;19.054;2022-12-04T13:37:34;101021.56;;;8.48;70.08
75891;BME280;64571;47.512;19.054;2022-12-04T13:40:43;101028.22;;;8.47;70.32
75891;BME280;64571;47.512;19.054;2022-12-04T13:43:51;101022.41;;;8.49;70.31
75891;BME280;64571;47.512;19.054;2022-12-04T13:46:59;101004.62;;;8.40;70.29
75891;BME280;64571;47.512;19.054;2022-12-04T13:53:34;101014.06;;;8.44;70.85
75891;BME280;64571;47.512;19.054;2022-12-04T13:56:44;101020.13;;;8.41;70.99
75891;BME280;64571;47.512;19.054;2022-12-04T13:59:47;101018.94;;;8.31;71.27
75891;BME280;64571;47.512;19.054;2022-12-04T14:02:52;101021.44;;;8.33;71.43
75891;BME280;64571;47.512;19.054;2022-12-04T14:05:56;101005.00;;;8.16;71.55
75891;BME280;64571;47.512;19.054;2022-12-04T14:09:04;101023.91;;;8.24;71.78
75891;BME280;64571;47.512;19.054;2022-12-04T14:12:11;101038.53;;;8.20;71.74
75891;BME280;64571;47.512;19.054;2022-12-04T14:15:23;101038.78;;;8.18;72.02
75891;BME280;64571;47.512;19.054;2022-12-04T14:18:28;101034.34;;;8.17;72.21
75891;BME280;64571;47.512;19.054;2022-12-04T14:21:42;101039.91;;;8.17;72.45
75891;BME280;64571;47.512;19.054;2022-12-04T14:24:45;101044.00;;;8.15;72.68
75891;BME280;64571;47.512;19.054;2022-12-04T14:27:50;101034.00;;;8.08;72.89
75891;BME280;64571;47.512;19.054;2022-12-04T14:31:18;101040.66;;;8.07;73.21
75891;BME280;64571;47.512;19.054;2022-12-04T14:34:25;101035.44;;;8.11;73.52
75891;BME280;64571;47.512;19.054;2022-12-04T14:37:34;101038.44;;;8.09;73.78
75891;BME280;64571;47.512;19.054;2022-12-04T14:40:57;101020.94;;;7.99;73.95
75891;BME280;64571;47.512;19.054;2022-12-04T14:44:00;101036.22;;;8.06;74.14
75891;BME280;64571;47.512;19.054;2022-12-04T14:57:54;101030.91;;;8.00;74.64
75891;BME280;64571;47.512;19.054;2022-12-04T15:01:21;101033.94;;;7.98;74.64
75891;BME280;64571;47.512;19.054;2022-12-04T15:04:33;101044.44;;;7.96;74.79
75891;BME280;64571;47.512;19.054;2022-12-04T15:07:44;101041.13;;;7.94;74.77
75891;BME280;64571;47.512;19.054;2022-12-04T15:10:49;101023.28;;;7.80;74.71
75891;BME280;64571;47.512;19.054;2022-12-04T15:14:12;101059.06;;;7.92;74.82
75891;BME280;64571;47.512;19.054;2022-12-04T15:17:17;101045.19;;;7.86;74.99
75891;BME280;64571;47.512;19.054;2022-12-04T15:20:19;101036.53;;;7.78;75.02
75891;BME280;64571;47.512;19.054;2022-12-04T15:23:37;101026.84;;;7.75;75.32
75891;BME280;64571;47.512;19.054;2022-12-04T15:26:41;101034.03;;;7.76;75.35
75891;BME280;64571;47.512;19.054;2022-12-04T15:29:44;101033.47;;;7.74;75.50
75891;BME280;64571;47.512;19.054;2022-12-04T15:32:50;101025.44;;;7.73;75.54
75891;BME280;64571;47.512;19.054;2022-12-04T15:36:02;101042.41;;;7.86;75.63
75891;BME280;64571;47.512;19.054;2022-12-04T15:39:06;101052.94;;;7.84;75.49
75891;BME280;64571;47.512;19.054;2022-12-04T15:48:23;101050.72;;;7.86;75.83
75891;BME280;64571;47.512;19.054;2022-12-04T15:51:26;101047.91;;;7.81;75.73
75891;BME280;64571;47.512;19.054;2022-12-04T15:54:28;101050.97;;;7.80;75.93
75891;BME280;64571;47.512;19.054;2022-12-04T15:57:32;101055.06;;;7.77;76.02
75891;BME280;64571;47.512;19.054;2022-12-04T16:00:38;101053.97;;;7.78;76.14
75891;BME280;64571;47.512;19.054;2022-12-04T16:06:48;101051.19;;;7.78;76.22
75891;BME280;64571;47.512;19.054;2022-12-04T16:09:58;101054.50;;;7.75;76.38
75891;BME280;64571;47.512;19.054;2022-12-04T16:13:05;101034.47;;;7.63;76.40
75891;BME280;64571;47.512;19.054;2022-12-04T16:16:11;101060.28;;;7.74;76.61
75891;BME280;64571;47.512;19.054;2022-12-04T16:22:23;101033.06;;;7.60;76.67
75891;BME280;64571;47.512;19.054;2022-12-04T16:25:25;101058.91;;;7.71;76.84
75891;BME280;64571;47.512;19.054;2022-12-04T16:28:30;101055.53;;;7.69;77.02
75891;BME280;64571;47.512;19.054;2022-12-04T16:31:32;101059.41;;;7.68;76.99
75891;BME280;64571;47.512;19.054;2022-12-04T16:34:35;101060.00;;;7.70;76.97
75891;BME280;64571;47.512;19.054;2022-12-04T16:37:37;101043.34;;;7.65;76.98
75891;BME280;64571;47.512;19.054;2022-12-04T16:40:40;101040.53;;;7.60;77.05
75891;BME280;64571;47.512;19.054;2022-12-04T16:43:43;101049.50;;;7.72;76.94
75891;BME280;64571;47.512;19.054;2022-12-04T16:46:49;101056.12;;;7.71;76.95
75891;BME280;64571;47.512;19.054;2022-12-04T16:49:51;101049.78;;;7.71;77.06
75891;BME280;64571;47.512;19.054;2022-12-04T16:52:54;101052.78;;;7.69;77.02
75891;BME280;64571;47.512;19.054;2022-12-04T16:55:57;101056.38;;;7.70;76.85
75891;BME280;64571;47.512;19.054;2022-12-04T16:58:59;101034.16;;;7.59;76.90
75891;BME280;64571;47.512;19.054;2022-12-04T17:02:03;101056.38;;;7.70;76.83
75891;BME280;64571;47.512;19.054;2022-12-04T17:05:16;101040.75;;;7.53;76.76
75891;BME280;64571;47.512;19.054;2022-12-04T17:08:20;101058.28;;;7.64;76.91
75891;BME280;64571;47.512;19.054;2022-12-04T17:11:23;101059.94;;;7.65;77.09
75891;BME280;64571;47.512;19.054;2022-12-04T17:14:25;101037.72;;;7.55;77.39
75891;BME280;64571;47.512;19.054;2022-12-04T17:17:28;101057.47;;;7.69;77.70
75891;BME280;64571;47.512;19.054;2022-12-04T17:20:30;101051.91;;;7.64;77.59
75891;BME280;64571;47.512;19.054;2022-12-04T17:23:33;101062.19;;;7.68;77.45
75891;BME280;64571;47.512;19.054;2022-12-04T17:26:36;101063.84;;;7.69;77.38
75891;BME280;64571;47.512;19.054;2022-12-04T17:29:39;101064.69;;;7.70;77.48
75891;BME280;64571;47.512;19.054;2022-12-04T17:32:41;101063.34;;;7.72;77.28
75891;BME280;64571;47.512;19.054;2022-12-04T17:35:44;101065.53;;;7.70;76.89
75891;BME280;64571;47.512;19.054;2022-12-04T17:38:47;101053.78;;;7.58;77.48
75891;BME280;64571;47.512;19.054;2022-12-04T17:41:49;101046.59;;;7.57;77.50
75891;BME280;64571;47.512;19.054;2022-12-04T17:44:52;101057.97;;;7.60;77.53
75891;BME280;64571;47.512;19.054;2022-12-04T17:47:55;101068.31;;;7.70;77.55
75891;BME280;64571;47.512;19.054;2022-12-04T17:51:05;101069.38;;;7.69;77.51
75891;BME280;64571;47.512;19.054;2022-12-04T17:54:09;101057.06;;;7.55;77.43
75891;BME280;64571;47.512;19.054;2022-12-04T17:57:12;101068.81;;;7.67;77.63
75891;BME280;64571;47.512;19.054;2022-12-04T18:00:14;101065.47;;;7.65;77.84